createdAt,value
2023-03-29T00:02:33.674Z,100572.16
2023-03-29T00:07:35.208Z,100569.69
2023-03-29T00:12:37.616Z,100563.97
2023-03-29T00:17:39.009Z,100552.69
2023-03-29T00:22:41.888Z,100550.28
2023-03-29T00:27:43.269Z,100546.75
2023-03-29T00:32:44.859Z,100554.47
2023-03-29T00:37:50.656Z,100545.22
2023-03-29T00:42:52.051Z,100541.28
2023-03-29T00:47:56.858Z,100517.84
2023-03-29T00:53:02.405Z,100526.91
2023-03-29T00:58:04.919Z,100514.28
2023-03-29T01:03:13.938Z,100517.84
2023-03-29T01:08:27.435Z,100515.13
2023-03-29T01:13:39.203Z,100514.75
2023-03-29T01:18:41.793Z,100495.28
2023-03-29T01:23:58.160Z,100485.50
2023-03-29T01:29:18.520Z,100469.13
2023-03-29T01:34:25.604Z,100467.81
2023-03-29T01:39:27.007Z,100463.06
2023-03-29T01:44:40.713Z,100464.47
2023-03-29T01:49:45.238Z,100454.38
2023-03-29T01:54:56.570Z,100442.84
2023-03-29T01:59:58.232Z,100436.09
2023-03-29T02:04:59.990Z,100433.56
2023-03-29T02:10:01.979Z,100432.97
2023-03-29T02:15:06.896Z,100428.34
2023-03-29T02:20:20.429Z,100425.63
2023-03-29T02:25:22.469Z,100419.44
2023-03-29T02:30:23.875Z,100413.38
2023-03-29T02:35:34.362Z,100392.56
2023-03-29T02:40:37.443Z,100388.78
2023-03-29T02:45:38.849Z,100387.09
2023-03-29T02:50:40.977Z,100385.78
2023-03-29T02:55:42.449Z,100377.56
2023-03-29T03:00:45.447Z,100360.84
2023-03-29T03:05:46.821Z,100363.06
2023-03-29T03:10:48.195Z,100349.66
2023-03-29T03:15:49.690Z,100350.25
2023-03-29T03:20:57.937Z,100347.97
2023-03-29T03:25:59.370Z,100332.41
2023-03-29T03:31:00.830Z,100343.34
2023-03-29T03:36:05.944Z,100334.31
2023-03-29T03:41:07.332Z,100339.19
2023-03-29T03:46:09.179Z,100333.72
2023-03-29T03:51:10.675Z,100338.13
2023-03-29T03:56:13.245Z,100328.84
2023-03-29T04:01:14.636Z,100324.47
2023-03-29T04:06:16.014Z,100328.03
2023-03-29T04:11:17.391Z,100317.56
2023-03-29T04:16:18.847Z,100316.25
2023-03-29T04:21:21.322Z,100316.25
2023-03-29T04:26:22.849Z,100306.63
2023-03-29T04:31:24.303Z,100319.56
2023-03-29T04:36:25.891Z,100306.28
2023-03-29T04:41:28.509Z,100304.59
2023-03-29T04:46:30.179Z,100297.72
2023-03-29T04:51:31.752Z,100300.44
2023-03-29T04:56:33.166Z,100303.75
2023-03-29T05:01:34.991Z,100283.19
2023-03-29T05:06:36.772Z,100289.75
2023-03-29T05:11:38.246Z,100288.09
2023-03-29T05:16:40.799Z,100270.38
2023-03-29T05:21:43.735Z,100266.31
2023-03-29T05:26:51.750Z,100266.91
2023-03-29T05:31:54.018Z,100257.06
2023-03-29T05:36:56.760Z,100257.06
2023-03-29T05:41:58.122Z,100259.78
2023-03-29T05:46:59.536Z,100261.44
2023-03-29T05:52:00.923Z,100258.13
2023-03-29T05:57:02.337Z,100266.09
2023-03-29T06:02:04.964Z,100269.88
2023-03-29T06:07:06.963Z,100267.16
2023-03-29T06:12:08.442Z,100270.72
2023-03-29T06:17:09.849Z,100269.63
2023-03-29T06:22:13.082Z,100277.72
2023-03-29T06:27:15.753Z,100264.91
2023-03-29T06:32:17.546Z,100267.63
2023-03-29T06:37:18.962Z,100272.25
2023-03-29T06:42:21.797Z,100262.16
2023-03-29T06:47:29.020Z,100264.06
2023-03-29T06:52:30.420Z,100263.59
2023-03-29T06:57:31.932Z,100264.66
2023-03-29T07:02:34.377Z,100266.78
2023-03-29T07:07:53.464Z,100268.47
2023-03-29T07:12:54.934Z,100257.06
2023-03-29T07:17:57.302Z,100252.91
2023-03-29T07:22:58.743Z,100246.59
2023-03-29T07:28:00.166Z,100250.75
2023-03-29T07:33:04.475Z,100255.25
2023-03-29T07:38:08.082Z,100263.22
2023-03-29T07:43:10.901Z,100273.47
2023-03-29T07:48:12.956Z,100265.63
2023-03-29T07:53:14.352Z,100262.16
2023-03-29T07:58:15.882Z,100258.69
2023-03-29T08:03:17.629Z,100262.53
2023-03-29T08:08:19.102Z,100271.19
2023-03-29T08:13:20.767Z,100269.50
2023-03-29T08:18:22.158Z,100263.06
2023-03-29T08:23:23.611Z,100262.00
2023-03-29T08:28:24.992Z,100265.56
2023-03-29T08:33:26.434Z,100276.00
2023-03-29T08:38:28.721Z,100266.75
2023-03-29T08:43:57.865Z,100255.78
2023-03-29T08:49:01.877Z,100248.44
2023-03-29T08:54:10.485Z,100245.44
2023-03-29T08:59:19.494Z,100249.97
2023-03-29T09:04:25.211Z,100242.72
2023-03-29T09:09:31.535Z,100240.00
2023-03-29T09:15:01.436Z,100234.78
2023-03-29T09:20:33.220Z,100226.22
2023-03-29T09:25:53.406Z,100230.53
2023-03-29T09:31:00.145Z,100217.56
2023-03-29T09:36:07.815Z,100219.25
2023-03-29T09:41:41.423Z,100207.69
2023-03-29T09:46:48.620Z,100205.47
2023-03-29T09:51:50.138Z,100200.59
2023-03-29T09:56:52.553Z,100209.25
2023-03-29T10:01:54.078Z,100202.38
2023-03-29T10:06:55.718Z,100198.31
2023-03-29T10:11:58.274Z,100193.91
2023-03-29T10:16:59.690Z,100192.28
2023-03-29T10:22:04.329Z,100185.38
2023-03-29T10:27:07.735Z,100185.38
2023-03-29T10:32:16.611Z,100180.38
2023-03-29T10:37:19.134Z,100175.72
2023-03-29T10:42:20.669Z,100161.59
2023-03-29T10:47:22.126Z,100168.16
2023-03-29T10:52:23.546Z,100161.59
2023-03-29T10:57:37.082Z,100159.47
2023-03-29T11:03:07.662Z,100159.31
2023-03-29T11:08:21.395Z,100145.78
2023-03-29T11:13:38.775Z,100132.34
2023-03-29T11:18:53.466Z,100133.66
2023-03-29T11:24:46.732Z,100131.03
2023-03-29T11:30:07.584Z,100119.59
2023-03-29T11:35:32.186Z,100107.50
2023-03-29T11:40:42.969Z,100106.41
2023-03-29T11:46:02.335Z,100106.41
2023-03-29T11:51:25.834Z,100111.41
2023-03-29T11:56:44.701Z,100096.56
2023-03-29T12:01:52.766Z,100093.84
2023-03-29T12:07:17.149Z,100090.63
2023-03-29T12:12:21.601Z,100078.72
2023-03-29T12:17:28.050Z,100068.63
2023-03-29T12:22:29.450Z,100065.66
2023-03-29T12:28:04.894Z,100052.81
2023-03-29T12:33:16.832Z,100057.56
2023-03-29T12:38:29.398Z,100049.06
2023-03-29T12:43:33.081Z,100044.28
2023-03-29T12:48:34.679Z,100030.22
2023-03-29T12:53:40.835Z,100027.88
2023-03-29T12:59:07.488Z,100030.38
2023-03-29T13:04:17.416Z,100033.97
2023-03-29T13:09:30.867Z,100025.75
2023-03-29T13:14:34.318Z,100019.59
2023-03-29T13:19:53.814Z,100027.25
2023-03-29T13:25:20.351Z,100001.09
2023-03-29T13:30:22.254Z,100004.94
2023-03-29T13:35:46.788Z,100011.47
2023-03-29T13:40:51.775Z,100005.66
2023-03-29T13:46:04.395Z,100005.94
2023-03-29T13:51:18.196Z,100002.94
2023-03-29T13:56:34.638Z,99994.72
2023-03-29T14:01:43.400Z,99993.09
2023-03-29T14:06:48.180Z,99986.78
2023-03-29T14:11:49.564Z,99983.44
2023-03-29T14:16:51.056Z,99985.09
2023-03-29T14:21:53.049Z,99980.72
2023-03-29T14:26:54.525Z,99975.50
2023-03-29T14:31:56.136Z,99965.97
2023-03-29T14:36:58.281Z,99967.88
2023-03-29T14:41:59.728Z,99956.09
2023-03-29T14:47:01.440Z,99955.28
2023-03-29T14:52:03.239Z,99962.66
2023-03-29T14:57:08.128Z,99955.53
2023-03-29T15:02:29.653Z,99956.09
2023-03-29T15:07:35.205Z,99954.69
2023-03-29T15:12:36.600Z,99944.59
2023-03-29T15:17:51.175Z,99944.34
2023-03-29T15:23:08.349Z,99930.69
2023-03-29T15:28:28.184Z,99936.94
2023-03-29T15:33:35.061Z,99929.59
2023-03-29T15:38:43.809Z,99917.81
2023-03-29T15:43:46.490Z,99913.44
2023-03-29T15:48:47.885Z,99910.44
2023-03-29T15:53:49.328Z,99913.44
2023-03-29T15:58:50.790Z,99905.47
2023-03-29T16:03:52.450Z,99901.66
2023-03-29T16:08:56.095Z,99902.22
2023-03-29T16:13:58.590Z,99896.78
2023-03-29T16:19:00.130Z,99890.47
2023-03-29T16:24:01.651Z,99885.25
2023-03-29T16:29:03.036Z,99883.03
2023-03-29T16:34:05.020Z,99892.91
2023-03-29T16:39:06.541Z,99886.81
2023-03-29T16:44:07.932Z,99882.19
2023-03-29T16:49:14.018Z,99878.38
2023-03-29T16:54:16.974Z,99874.75
2023-03-29T16:59:18.365Z,99864.38
2023-03-29T17:04:19.769Z,99870.19
2023-03-29T17:09:21.412Z,99872.34
2023-03-29T17:14:22.789Z,99866.53
2023-03-29T17:19:24.214Z,99866.03
2023-03-29T17:24:25.622Z,99869.00
2023-03-29T17:29:26.992Z,99863.53
2023-03-29T17:34:28.989Z,99876.16
2023-03-29T17:39:30.620Z,99870.69
2023-03-29T17:44:33.098Z,99871.75
2023-03-29T17:49:34.528Z,99871.75
2023-03-29T17:54:36.081Z,99864.16
2023-03-29T17:59:37.931Z,99867.59
2023-03-29T18:04:39.334Z,99883.16
2023-03-29T18:09:40.778Z,99884.59
2023-03-29T18:14:42.147Z,99886.25
2023-03-29T18:19:43.534Z,99888.03
2023-03-29T18:24:46.341Z,99897.91
2023-03-29T18:29:47.711Z,99890.56
2023-03-29T18:34:49.078Z,99889.94
2023-03-29T18:39:50.537Z,99905.03
2023-03-29T18:44:52.128Z,99913.88
2023-03-29T18:49:53.998Z,99921.69
2023-03-29T18:54:55.393Z,99924.44
2023-03-29T18:59:56.759Z,99916.78
2023-03-29T19:04:58.165Z,99907.19
2023-03-29T19:09:59.544Z,99909.09
2023-03-29T19:15:01.018Z,99912.66
2023-03-29T19:20:02.442Z,99913.50
2023-03-29T19:25:04.663Z,99912.66
2023-03-29T19:30:06.606Z,99913.22
2023-03-29T19:35:09.443Z,99901.50
2023-03-29T19:40:11.141Z,99897.59
2023-03-29T19:45:12.519Z,99901.66
2023-03-29T19:50:14.150Z,99889.13
2023-03-29T19:55:15.594Z,99888.53
2023-03-29T20:00:18.532Z,99883.66
2023-03-29T20:05:20.197Z,99874.03
2023-03-29T20:10:21.636Z,99876.78
2023-03-29T20:15:25.374Z,99871.56
2023-03-29T20:20:26.893Z,99863.94
2023-03-29T20:25:28.642Z,99855.25
2023-03-29T20:30:30.072Z,99853.00
2023-03-29T20:35:31.552Z,99846.72
2023-03-29T20:40:34.272Z,99846.97
2023-03-29T20:45:49.849Z,99840.41
2023-03-29T20:50:54.086Z,99831.13
2023-03-29T20:55:55.467Z,99822.38
2023-03-29T21:00:58.621Z,99808.69
2023-03-29T21:06:02.092Z,99804.88
2023-03-29T21:11:03.631Z,99803.78
2023-03-29T21:16:05.601Z,99799.66
2023-03-29T21:21:10.735Z,99790.13
2023-03-29T21:26:12.402Z,99787.41
2023-03-29T21:31:13.834Z,99779.75
2023-03-29T21:36:15.220Z,99773.72
2023-03-29T21:41:16.703Z,99769.91
2023-03-29T21:46:18.108Z,99763.63
2023-03-29T21:51:19.544Z,99770.16
2023-03-29T21:56:22.233Z,99759.50
2023-03-29T22:01:23.687Z,99762.78
2023-03-29T22:06:25.429Z,99752.91
2023-03-29T22:11:28.463Z,99748.56
2023-03-29T22:16:31.206Z,99755.09
2023-03-29T22:21:32.624Z,99739.25
2023-03-29T22:26:34.023Z,99735.72
2023-03-29T22:31:37.743Z,99734.88
2023-03-29T22:36:39.148Z,99743.81
2023-03-29T22:41:41.018Z,99735.13
2023-03-29T22:46:42.406Z,99735.44
2023-03-29T22:51:43.962Z,99737.63
2023-03-29T22:56:45.447Z,99740.09
2023-03-29T23:01:48.088Z,99735.13
2023-03-29T23:06:49.524Z,99718.16
2023-03-29T23:11:50.893Z,99725.03
2023-03-29T23:16:52.322Z,99720.06
2023-03-29T23:21:54.987Z,99715.75
2023-03-29T23:26:57.424Z,99718.47
2023-03-29T23:31:59.369Z,99713.53
2023-03-29T23:37:00.765Z,99700.97
2023-03-29T23:42:03.316Z,99693.06
2023-03-29T23:47:06.000Z,99697.94
2023-03-29T23:52:07.587Z,99702.31
2023-03-29T23:57:10.633Z,99692.78
